Terminal Aerodrome Forecast
Issued by NWS

Home | Current Version | Previous Version | Text Only | Print | Product List | Glossary On
Versions: 1 2 3 4 5 6 7 8 9 10 11 12 13
899
FTUS43 KICT 231720
TAFHUT
TAF
KHUT 231720Z 2318/2418 VRB04KT P6SM SKC
     FM232100 17008KT P6SM SKC
     FM240900 18010KT P6SM SKC WS015/20045KT
     FM241400 18022G30KT P6SM SCT250=

USA.gov is the U.S. government's official web portal to all federal, state and local government web resources and services.